This is the latest recevied weather packets stored in our database for station/object KM4NDI. If no packets are shown the sender has not sent any weather packets the latest 10 day(s).
| Time | Temp. | Humidity | Pressure | Rain* | Wind** | Luminosity | Snow |
|---|---|---|---|---|---|---|---|
| 1777536327 | 17.78° C | 99% | 1013.1 hPa | 0.51 mm | - | - | - |
| 1777535730 | 17.78° C | 99% | 1013.3 hPa | 0.51 mm | - | - | - |
| 1777534518 | 17.78° C | 99% | 1013.2 hPa | 0.51 mm | - | - | - |
| 1777527324 | 20.56° C | 99% | 1014.1 hPa | 0 mm | - | - | - |
| 1777523724 | 20.56° C | 99% | 1013.7 hPa | 0.25 mm | - | - | - |
| 1777521915 | 21.11° C | 99% | 1013.8 hPa | 0 mm | - | - | - |
| 1777515948 | 23.33° C | 99% | 1013.9 hPa | 0 mm | - | - | - |
| 1777509923 | 25° C | 99% | 1011.8 hPa | 0 mm | - | - | - |
| 1777506921 | 26.67° C | 99% | 1011.7 hPa | 0 mm | - | - | - |
| 1777505150 | 27.78° C | 99% | 1011.2 hPa | 0 mm | - | - | - |
| 1777502127 | 29.44° C | 93% | 1011.8 hPa | 0 mm | - | - | - |
| 1777501550 | 28.89° C | 96% | 1011.9 hPa | 0 mm | - | - | - |
| 1777496123 | 31.11° C | 80% | 1012.8 hPa | 0 mm | - | - | - |
| 1777495540 | 31.11° C | 81% | 1012.8 hPa | 0 mm | - | - | - |
| 1777492523 | 33.33° C | 74% | 1013.1 hPa | 0 mm | - | - | - |
| 1777486537 | 30.56° C | 91% | 1014.8 hPa | 0 mm | - | - | - |
| 1777484727 | 28.33° C | 99% | 1015.3 hPa | 0 mm | - | - | - |
| 1777484144 | 27.22° C | 99% | 1015.3 hPa | 0 mm | - | - | - |
| 1777481724 | 25.56° C | 99% | 1015.9 hPa | 0 mm | - | - | - |
| 1777475719 | 25.56° C | 99% | 1016.1 hPa | 0 mm | - | - | - |
| 1777475162 | 25.56° C | 99% | 1016.1 hPa | 0 mm | - | - | - |
| 1777472119 | 23.33° C | 99% | 1016.3 hPa | 0 mm | - | - | - |
| 1777466729 | 20.56° C | 99% | 1016.4 hPa | 0 mm | - | - | - |
| 1777466132 | 20° C | 99% | 1016.3 hPa | 0 mm | - | - | - |
| 1777465557 | 20° C | 99% | 1016.2 hPa | 4.06 mm | - | - | - |
* Rain latest hour (hover to see other rain measurements)
** Current wind speed in m/s (hover to see current wind gust speed)